sensor_id;sensor_type;location;lat;lon;timestamp;P1;durP1;ratioP1;P2;durP2;ratioP2
18503;SDS011;9381;54.244;10.074;2022-09-01T00:03:20;2.47;;;1.37;;
18503;SDS011;9381;54.244;10.074;2022-09-01T00:08:24;1.77;;;1.67;;
18503;SDS011;9381;54.244;10.074;2022-09-01T00:13:24;2.93;;;1.70;;
18503;SDS011;9381;54.244;10.074;2022-09-01T00:18:25;2.00;;;1.80;;
18503;SDS011;9381;54.244;10.074;2022-09-01T00:23:26;2.10;;;1.93;;
18503;SDS011;9381;54.244;10.074;2022-09-01T00:28:27;3.00;;;1.70;;
18503;SDS011;9381;54.244;10.074;2022-09-01T00:33:27;3.57;;;2.30;;
18503;SDS011;9381;54.244;10.074;2022-09-01T00:38:27;2.73;;;2.30;;
18503;SDS011;9381;54.244;10.074;2022-09-01T00:43:36;4.10;;;2.40;;
18503;SDS011;9381;54.244;10.074;2022-09-01T00:48:52;2.33;;;2.13;;
18503;SDS011;9381;54.244;10.074;2022-09-01T00:53:56;3.70;;;2.60;;
18503;SDS011;9381;54.244;10.074;2022-09-01T00:58:59;2.43;;;2.20;;
18503;SDS011;9381;54.244;10.074;2022-09-01T01:04:01;3.50;;;2.10;;
18503;SDS011;9381;54.244;10.074;2022-09-01T01:09:06;2.23;;;2.03;;
18503;SDS011;9381;54.244;10.074;2022-09-01T01:14:07;3.17;;;2.00;;
18503;SDS011;9381;54.244;10.074;2022-09-01T01:24:42;2.33;;;1.90;;
18503;SDS011;9381;54.244;10.074;2022-09-01T01:29:43;2.17;;;1.90;;
18503;SDS011;9381;54.244;10.074;2022-09-01T01:34:44;3.13;;;2.30;;
18503;SDS011;9381;54.244;10.074;2022-09-01T01:39:46;3.53;;;2.03;;
18503;SDS011;9381;54.244;10.074;2022-09-01T01:44:48;4.07;;;2.10;;
18503;SDS011;9381;54.244;10.074;2022-09-01T01:49:48;2.10;;;2.00;;
18503;SDS011;9381;54.244;10.074;2022-09-01T01:54:49;2.30;;;2.10;;
18503;SDS011;9381;54.244;10.074;2022-09-01T01:59:49;3.33;;;2.10;;
18503;SDS011;9381;54.244;10.074;2022-09-01T02:04:49;1.77;;;1.60;;
18503;SDS011;9381;54.244;10.074;2022-09-01T02:09:50;1.93;;;1.57;;
18503;SDS011;9381;54.244;10.074;2022-09-01T02:14:51;1.60;;;1.50;;
18503;SDS011;9381;54.244;10.074;2022-09-01T02:19:53;4.17;;;1.40;;
18503;SDS011;9381;54.244;10.074;2022-09-01T02:24:56;2.47;;;1.53;;
18503;SDS011;9381;54.244;10.074;2022-09-01T02:29:56;2.30;;;1.70;;
18503;SDS011;9381;54.244;10.074;2022-09-01T02:34:57;1.73;;;1.13;;
18503;SDS011;9381;54.244;10.074;2022-09-01T02:40:00;1.40;;;1.30;;
18503;SDS011;9381;54.244;10.074;2022-09-01T02:45:01;1.63;;;1.30;;
18503;SDS011;9381;54.244;10.074;2022-09-01T02:50:01;2.27;;;1.70;;
18503;SDS011;9381;54.244;10.074;2022-09-01T02:55:02;2.83;;;1.57;;
18503;SDS011;9381;54.244;10.074;2022-09-01T03:00:05;2.10;;;1.47;;
18503;SDS011;9381;54.244;10.074;2022-09-01T03:05:19;1.50;;;1.40;;
18503;SDS011;9381;54.244;10.074;2022-09-01T03:10:25;2.10;;;1.30;;
18503;SDS011;9381;54.244;10.074;2022-09-01T03:15:31;1.27;;;1.17;;
18503;SDS011;9381;54.244;10.074;2022-09-01T03:20:33;3.07;;;1.30;;
18503;SDS011;9381;54.244;10.074;2022-09-01T03:25:35;2.20;;;1.30;;
18503;SDS011;9381;54.244;10.074;2022-09-01T03:30:36;2.03;;;1.40;;
18503;SDS011;9381;54.244;10.074;2022-09-01T03:35:39;1.40;;;1.20;;
18503;SDS011;9381;54.244;10.074;2022-09-01T03:40:39;2.50;;;1.53;;
18503;SDS011;9381;54.244;10.074;2022-09-01T03:45:40;1.43;;;1.27;;
18503;SDS011;9381;54.244;10.074;2022-09-01T03:50:41;1.40;;;1.30;;
18503;SDS011;9381;54.244;10.074;2022-09-01T03:55:45;2.40;;;1.10;;
18503;SDS011;9381;54.244;10.074;2022-09-01T04:00:48;2.23;;;1.43;;
18503;SDS011;9381;54.244;10.074;2022-09-01T04:05:54;1.50;;;1.40;;
18503;SDS011;9381;54.244;10.074;2022-09-01T04:10:55;1.50;;;1.40;;
18503;SDS011;9381;54.244;10.074;2022-09-01T04:15:57;1.67;;;1.57;;
18503;SDS011;9381;54.244;10.074;2022-09-01T04:20:59;1.63;;;1.53;;
18503;SDS011;9381;54.244;10.074;2022-09-01T04:26:00;2.43;;;1.63;;
18503;SDS011;9381;54.244;10.074;2022-09-01T04:31:09;1.83;;;1.73;;
18503;SDS011;9381;54.244;10.074;2022-09-01T04:36:16;3.30;;;2.20;;
18503;SDS011;9381;54.244;10.074;2022-09-01T04:41:26;5.07;;;1.83;;
18503;SDS011;9381;54.244;10.074;2022-09-01T04:46:32;3.60;;;1.67;;
18503;SDS011;9381;54.244;10.074;2022-09-01T04:51:41;2.53;;;1.90;;
18503;SDS011;9381;54.244;10.074;2022-09-01T04:56:45;2.20;;;1.53;;
18503;SDS011;9381;54.244;10.074;2022-09-01T05:01:51;2.60;;;1.90;;
18503;SDS011;9381;54.244;10.074;2022-09-01T05:06:55;4.37;;;1.97;;
18503;SDS011;9381;54.244;10.074;2022-09-01T05:11:59;3.70;;;2.03;;
18503;SDS011;9381;54.244;10.074;2022-09-01T05:17:10;2.33;;;2.10;;
18503;SDS011;9381;54.244;10.074;2022-09-01T05:22:12;2.43;;;1.70;;
18503;SDS011;9381;54.244;10.074;2022-09-01T05:27:15;3.03;;;1.97;;
18503;SDS011;9381;54.244;10.074;2022-09-01T05:32:17;2.47;;;2.27;;
18503;SDS011;9381;54.244;10.074;2022-09-01T05:37:17;2.70;;;2.50;;
18503;SDS011;9381;54.244;10.074;2022-09-01T05:42:17;3.73;;;3.00;;
18503;SDS011;9381;54.244;10.074;2022-09-01T05:47:17;2.90;;;2.70;;
18503;SDS011;9381;54.244;10.074;2022-09-01T05:52:20;2.83;;;2.63;;
18503;SDS011;9381;54.244;10.074;2022-09-01T05:57:25;3.97;;;2.43;;
18503;SDS011;9381;54.244;10.074;2022-09-01T06:02:25;3.40;;;3.03;;
18503;SDS011;9381;54.244;10.074;2022-09-01T06:07:25;3.17;;;2.87;;
18503;SDS011;9381;54.244;10.074;2022-09-01T06:12:27;3.87;;;3.00;;
18503;SDS011;9381;54.244;10.074;2022-09-01T06:17:28;3.17;;;2.90;;
18503;SDS011;9381;54.244;10.074;2022-09-01T06:22:29;3.57;;;3.27;;
18503;SDS011;9381;54.244;10.074;2022-09-01T06:27:29;3.35;;;3.03;;
18503;SDS011;9381;54.244;10.074;2022-09-01T06:32:31;3.00;;;2.80;;
18503;SDS011;9381;54.244;10.074;2022-09-01T06:37:34;2.90;;;2.50;;
18503;SDS011;9381;54.244;10.074;2022-09-01T06:42:37;4.53;;;2.70;;
18503;SDS011;9381;54.244;10.074;2022-09-01T06:47:37;2.40;;;2.20;;
18503;SDS011;9381;54.244;10.074;2022-09-01T06:52:38;4.40;;;2.63;;
18503;SDS011;9381;54.244;10.074;2022-09-01T06:57:39;3.60;;;2.03;;
18503;SDS011;9381;54.244;10.074;2022-09-01T07:02:44;3.20;;;1.93;;
18503;SDS011;9381;54.244;10.074;2022-09-01T07:07:47;4.13;;;1.60;;
18503;SDS011;9381;54.244;10.074;2022-09-01T07:12:50;1.63;;;1.40;;
18503;SDS011;9381;54.244;10.074;2022-09-01T07:17:55;1.97;;;1.20;;
18503;SDS011;9381;54.244;10.074;2022-09-01T07:22:57;1.40;;;1.10;;
18503;SDS011;9381;54.244;10.074;2022-09-01T07:27:58;1.03;;;0.97;;
18503;SDS011;9381;54.244;10.074;2022-09-01T07:32:59;3.57;;;1.17;;
18503;SDS011;9381;54.244;10.074;2022-09-01T07:37:59;3.43;;;1.27;;
18503;SDS011;9381;54.244;10.074;2022-09-01T07:42:59;1.67;;;1.00;;
18503;SDS011;9381;54.244;10.074;2022-09-01T07:48:00;1.20;;;0.80;;
18503;SDS011;9381;54.244;10.074;2022-09-01T07:53:05;2.17;;;0.93;;
18503;SDS011;9381;54.244;10.074;2022-09-01T07:58:07;2.33;;;0.70;;
18503;SDS011;9381;54.244;10.074;2022-09-01T08:03:07;2.97;;;0.95;;
18503;SDS011;9381;54.244;10.074;2022-09-01T08:08:08;1.10;;;0.90;;
18503;SDS011;9381;54.244;10.074;2022-09-01T08:13:09;2.00;;;0.70;;
18503;SDS011;9381;54.244;10.074;2022-09-01T08:18:10;2.10;;;0.70;;
18503;SDS011;9381;54.244;10.074;2022-09-01T08:23:12;2.00;;;0.80;;
18503;SDS011;9381;54.244;10.074;2022-09-01T08:28:15;1.27;;;0.83;;
18503;SDS011;9381;54.244;10.074;2022-09-01T08:33:16;2.23;;;0.70;;
18503;SDS011;9381;54.244;10.074;2022-09-01T08:38:16;2.20;;;0.80;;
18503;SDS011;9381;54.244;10.074;2022-09-01T08:48:30;3.30;;;0.97;;
18503;SDS011;9381;54.244;10.074;2022-09-01T08:53:43;1.13;;;0.80;;
18503;SDS011;9381;54.244;10.074;2022-09-01T08:58:48;0.93;;;0.90;;
18503;SDS011;9381;54.244;10.074;2022-09-01T09:03:54;1.38;;;0.90;;
18503;SDS011;9381;54.244;10.074;2022-09-01T09:09:08;1.10;;;1.00;;
18503;SDS011;9381;54.244;10.074;2022-09-01T09:19:25;3.13;;;1.00;;
18503;SDS011;9381;54.244;10.074;2022-09-01T09:24:49;3.97;;;0.83;;
18503;SDS011;9381;54.244;10.074;2022-09-01T09:34:54;2.73;;;0.90;;
18503;SDS011;9381;54.244;10.074;2022-09-01T09:50:25;1.30;;;0.80;;
18503;SDS011;9381;54.244;10.074;2022-09-01T09:55:28;1.00;;;0.70;;
18503;SDS011;9381;54.244;10.074;2022-09-01T10:00:30;1.60;;;0.70;;
18503;SDS011;9381;54.244;10.074;2022-09-01T10:10:42;0.97;;;0.60;;
18503;SDS011;9381;54.244;10.074;2022-09-01T10:15:49;1.10;;;0.70;;
18503;SDS011;9381;54.244;10.074;2022-09-01T10:20:53;1.33;;;0.63;;
18503;SDS011;9381;54.244;10.074;2022-09-01T10:26:01;1.63;;;0.80;;
18503;SDS011;9381;54.244;10.074;2022-09-01T10:31:15;1.20;;;0.60;;
18503;SDS011;9381;54.244;10.074;2022-09-01T10:36:16;1.40;;;0.83;;
18503;SDS011;9381;54.244;10.074;2022-09-01T10:46:43;2.87;;;0.67;;
18503;SDS011;9381;54.244;10.074;2022-09-01T10:51:44;2.43;;;0.60;;
18503;SDS011;9381;54.244;10.074;2022-09-01T10:56:46;0.70;;;0.63;;
18503;SDS011;9381;54.244;10.074;2022-09-01T11:11:53;0.60;;;0.60;;
18503;SDS011;9381;54.244;10.074;2022-09-01T11:22:20;0.67;;;0.67;;
18503;SDS011;9381;54.244;10.074;2022-09-01T11:32:49;1.10;;;0.57;;
18503;SDS011;9381;54.244;10.074;2022-09-01T11:38:00;2.20;;;0.70;;
18503;SDS011;9381;54.244;10.074;2022-09-01T11:43:06;2.10;;;0.50;;
18503;SDS011;9381;54.244;10.074;2022-09-01T11:48:10;0.77;;;0.63;;
18503;SDS011;9381;54.244;10.074;2022-09-01T11:53:14;2.60;;;0.70;;
18503;SDS011;9381;54.244;10.074;2022-09-01T12:03:28;1.47;;;0.57;;
18503;SDS011;9381;54.244;10.074;2022-09-01T12:08:30;0.60;;;0.60;;
18503;SDS011;9381;54.244;10.074;2022-09-01T12:13:33;2.10;;;0.50;;
18503;SDS011;9381;54.244;10.074;2022-09-01T12:18:35;2.77;;;0.50;;
18503;SDS011;9381;54.244;10.074;2022-09-01T12:23:43;2.43;;;2.23;;
18503;SDS011;9381;54.244;10.074;2022-09-01T12:28:44;2.67;;;0.73;;
18503;SDS011;9381;54.244;10.074;2022-09-01T12:33:49;1.03;;;0.83;;
18503;SDS011;9381;54.244;10.074;2022-09-01T12:38:51;1.17;;;0.60;;
18503;SDS011;9381;54.244;10.074;2022-09-01T12:43:53;1.57;;;0.50;;
18503;SDS011;9381;54.244;10.074;2022-09-01T12:48:54;1.33;;;0.60;;
18503;SDS011;9381;54.244;10.074;2022-09-01T12:54:23;1.13;;;0.87;;
18503;SDS011;9381;54.244;10.074;2022-09-01T12:59:25;0.50;;;0.50;;
18503;SDS011;9381;54.244;10.074;2022-09-01T13:04:27;2.43;;;0.57;;
18503;SDS011;9381;54.244;10.074;2022-09-01T13:09:30;0.60;;;0.60;;
18503;SDS011;9381;54.244;10.074;2022-09-01T13:14:30;0.60;;;0.60;;
18503;SDS011;9381;54.244;10.074;2022-09-01T13:19:30;0.70;;;0.57;;
18503;SDS011;9381;54.244;10.074;2022-09-01T13:24:31;0.90;;;0.60;;
18503;SDS011;9381;54.244;10.074;2022-09-01T13:29:31;1.20;;;0.60;;
18503;SDS011;9381;54.244;10.074;2022-09-01T13:34:33;1.00;;;0.83;;
18503;SDS011;9381;54.244;10.074;2022-09-01T13:39:34;1.93;;;0.63;;
18503;SDS011;9381;54.244;10.074;2022-09-01T13:44:34;0.80;;;0.75;;
18503;SDS011;9381;54.244;10.074;2022-09-01T13:49:35;0.67;;;0.67;;
18503;SDS011;9381;54.244;10.074;2022-09-01T13:54:35;2.20;;;0.70;;
18503;SDS011;9381;54.244;10.074;2022-09-01T13:59:36;0.50;;;0.40;;
18503;SDS011;9381;54.244;10.074;2022-09-01T14:04:37;1.03;;;0.60;;
18503;SDS011;9381;54.244;10.074;2022-09-01T14:09:38;0.53;;;0.53;;
18503;SDS011;9381;54.244;10.074;2022-09-01T14:14:38;0.50;;;0.50;;
18503;SDS011;9381;54.244;10.074;2022-09-01T14:19:38;0.97;;;0.67;;
18503;SDS011;9381;54.244;10.074;2022-09-01T14:24:39;2.10;;;0.60;;
18503;SDS011;9381;54.244;10.074;2022-09-01T14:29:39;0.80;;;0.70;;
18503;SDS011;9381;54.244;10.074;2022-09-01T14:34:40;0.93;;;0.70;;
18503;SDS011;9381;54.244;10.074;2022-09-01T14:39:40;0.67;;;0.67;;
18503;SDS011;9381;54.244;10.074;2022-09-01T14:44:41;0.60;;;0.50;;
18503;SDS011;9381;54.244;10.074;2022-09-01T14:49:42;0.77;;;0.67;;
18503;SDS011;9381;54.244;10.074;2022-09-01T14:54:43;0.73;;;0.53;;
18503;SDS011;9381;54.244;10.074;2022-09-01T14:59:44;0.87;;;0.53;;
18503;SDS011;9381;54.244;10.074;2022-09-01T15:04:44;1.45;;;0.60;;
18503;SDS011;9381;54.244;10.074;2022-09-01T15:09:45;1.23;;;0.60;;
18503;SDS011;9381;54.244;10.074;2022-09-01T15:14:45;1.13;;;0.73;;
18503;SDS011;9381;54.244;10.074;2022-09-01T15:19:45;1.70;;;0.73;;
18503;SDS011;9381;54.244;10.074;2022-09-01T15:24:46;0.70;;;0.60;;
18503;SDS011;9381;54.244;10.074;2022-09-01T15:29:46;0.50;;;0.50;;
18503;SDS011;9381;54.244;10.074;2022-09-01T15:34:47;1.07;;;0.90;;
18503;SDS011;9381;54.244;10.074;2022-09-01T15:39:48;1.23;;;0.70;;
18503;SDS011;9381;54.244;10.074;2022-09-01T15:44:48;0.50;;;0.50;;
18503;SDS011;9381;54.244;10.074;2022-09-01T15:49:48;1.37;;;0.70;;
18503;SDS011;9381;54.244;10.074;2022-09-01T15:54:49;1.33;;;0.60;;
18503;SDS011;9381;54.244;10.074;2022-09-01T15:59:49;2.60;;;0.80;;
18503;SDS011;9381;54.244;10.074;2022-09-01T16:04:49;1.20;;;0.70;;
18503;SDS011;9381;54.244;10.074;2022-09-01T16:09:50;0.70;;;0.70;;
18503;SDS011;9381;54.244;10.074;2022-09-01T16:14:56;1.57;;;0.50;;
18503;SDS011;9381;54.244;10.074;2022-09-01T16:19:58;0.52;;;0.52;;
18503;SDS011;9381;54.244;10.074;2022-09-01T16:25:13;1.60;;;0.50;;
18503;SDS011;9381;54.244;10.074;2022-09-01T16:30:19;1.10;;;0.70;;
18503;SDS011;9381;54.244;10.074;2022-09-01T16:35:21;1.87;;;0.60;;
18503;SDS011;9381;54.244;10.074;2022-09-01T16:51:00;0.70;;;0.70;;
18503;SDS011;9381;54.244;10.074;2022-09-01T16:56:22;1.60;;;1.07;;
18503;SDS011;9381;54.244;10.074;2022-09-01T17:11:49;1.00;;;0.70;;
18503;SDS011;9381;54.244;10.074;2022-09-01T17:16:53;1.07;;;0.60;;
18503;SDS011;9381;54.244;10.074;2022-09-01T17:22:03;0.70;;;0.70;;
18503;SDS011;9381;54.244;10.074;2022-09-01T17:27:07;0.73;;;0.60;;
18503;SDS011;9381;54.244;10.074;2022-09-01T17:32:27;0.70;;;0.70;;
18503;SDS011;9381;54.244;10.074;2022-09-01T17:38:42;1.30;;;0.50;;
18503;SDS011;9381;54.244;10.074;2022-09-01T17:48:48;1.27;;;0.60;;
18503;SDS011;9381;54.244;10.074;2022-09-01T17:59:24;1.13;;;0.70;;
18503;SDS011;9381;54.244;10.074;2022-09-01T18:09:51;2.87;;;0.80;;
18503;SDS011;9381;54.244;10.074;2022-09-01T18:20:32;0.50;;;0.50;;
18503;SDS011;9381;54.244;10.074;2022-09-01T18:25:47;2.83;;;0.73;;
18503;SDS011;9381;54.244;10.074;2022-09-01T18:30:57;0.60;;;0.60;;
18503;SDS011;9381;54.244;10.074;2022-09-01T18:41:35;0.80;;;0.70;;
18503;SDS011;9381;54.244;10.074;2022-09-01T18:46:47;1.60;;;0.70;;
18503;SDS011;9381;54.244;10.074;2022-09-01T18:57:22;2.67;;;0.60;;
18503;SDS011;9381;54.244;10.074;2022-09-01T19:13:01;2.37;;;1.00;;
18503;SDS011;9381;54.244;10.074;2022-09-01T19:18:13;0.70;;;0.67;;
18503;SDS011;9381;54.244;10.074;2022-09-01T19:33:46;3.70;;;0.60;;
18503;SDS011;9381;54.244;10.074;2022-09-01T19:38:50;1.27;;;0.80;;
18503;SDS011;9381;54.244;10.074;2022-09-01T19:43:54;1.07;;;0.70;;
18503;SDS011;9381;54.244;10.074;2022-09-01T20:04:49;1.03;;;0.90;;
18503;SDS011;9381;54.244;10.074;2022-09-01T20:15:22;2.20;;;1.03;;
18503;SDS011;9381;54.244;10.074;2022-09-01T20:20:43;0.60;;;0.60;;
18503;SDS011;9381;54.244;10.074;2022-09-01T20:25:47;1.17;;;0.70;;
18503;SDS011;9381;54.244;10.074;2022-09-01T20:30:58;2.40;;;0.80;;
18503;SDS011;9381;54.244;10.074;2022-09-01T20:41:24;1.80;;;0.80;;
18503;SDS011;9381;54.244;10.074;2022-09-01T20:46:50;1.17;;;0.70;;
18503;SDS011;9381;54.244;10.074;2022-09-01T20:51:59;1.97;;;0.90;;
18503;SDS011;9381;54.244;10.074;2022-09-01T21:07:47;1.43;;;0.90;;
18503;SDS011;9381;54.244;10.074;2022-09-01T21:12:51;1.73;;;1.00;;
18503;SDS011;9381;54.244;10.074;2022-09-01T21:23:19;0.80;;;0.80;;
18503;SDS011;9381;54.244;10.074;2022-09-01T21:28:20;1.70;;;0.90;;
18503;SDS011;9381;54.244;10.074;2022-09-01T21:33:26;1.73;;;1.00;;
18503;SDS011;9381;54.244;10.074;2022-09-01T21:38:28;0.90;;;0.80;;
18503;SDS011;9381;54.244;10.074;2022-09-01T21:43:30;1.17;;;1.00;;
18503;SDS011;9381;54.244;10.074;2022-09-01T21:48:33;2.17;;;1.00;;
18503;SDS011;9381;54.244;10.074;2022-09-01T21:53:34;2.23;;;1.17;;
18503;SDS011;9381;54.244;10.074;2022-09-01T21:58:35;0.80;;;0.70;;
18503;SDS011;9381;54.244;10.074;2022-09-01T22:03:36;1.43;;;0.97;;
18503;SDS011;9381;54.244;10.074;2022-09-01T22:08:37;1.58;;;0.90;;
18503;SDS011;9381;54.244;10.074;2022-09-01T22:13:37;1.10;;;1.00;;
18503;SDS011;9381;54.244;10.074;2022-09-01T22:18:38;1.63;;;1.10;;
18503;SDS011;9381;54.244;10.074;2022-09-01T22:23:38;3.80;;;1.17;;
18503;SDS011;9381;54.244;10.074;2022-09-01T22:28:39;1.17;;;0.90;;
18503;SDS011;9381;54.244;10.074;2022-09-01T22:33:40;1.10;;;0.93;;
18503;SDS011;9381;54.244;10.074;2022-09-01T22:38:42;1.10;;;1.00;;
18503;SDS011;9381;54.244;10.074;2022-09-01T22:43:42;0.82;;;0.82;;
18503;SDS011;9381;54.244;10.074;2022-09-01T22:48:42;0.70;;;0.70;;
18503;SDS011;9381;54.244;10.074;2022-09-01T22:53:43;0.83;;;0.80;;
18503;SDS011;9381;54.244;10.074;2022-09-01T22:58:46;1.10;;;0.90;;
18503;SDS011;9381;54.244;10.074;2022-09-01T23:03:47;0.90;;;0.90;;
18503;SDS011;9381;54.244;10.074;2022-09-01T23:08:48;1.77;;;1.23;;
18503;SDS011;9381;54.244;10.074;2022-09-01T23:13:48;2.10;;;1.00;;
18503;SDS011;9381;54.244;10.074;2022-09-01T23:18:49;1.00;;;1.00;;
18503;SDS011;9381;54.244;10.074;2022-09-01T23:23:50;1.20;;;1.10;;
18503;SDS011;9381;54.244;10.074;2022-09-01T23:28:51;2.30;;;1.17;;
18503;SDS011;9381;54.244;10.074;2022-09-01T23:33:52;1.00;;;0.90;;
18503;SDS011;9381;54.244;10.074;2022-09-01T23:38:53;1.30;;;1.10;;
18503;SDS011;9381;54.244;10.074;2022-09-01T23:43:55;1.13;;;1.07;;
18503;SDS011;9381;54.244;10.074;2022-09-01T23:48:56;1.47;;;1.07;;
18503;SDS011;9381;54.244;10.074;2022-09-01T23:53:57;2.05;;;1.23;;
18503;SDS011;9381;54.244;10.074;2022-09-01T23:58:58;1.43;;;1.33;;
